createdAt,value
2022-11-07T00:01:26.097Z,3.60
2022-11-07T00:06:57.023Z,5.20
2022-11-07T00:12:25.061Z,3.40
2022-11-07T00:17:50.079Z,3.72
2022-11-07T00:23:15.437Z,3.42
2022-11-07T00:28:43.525Z,3.55
2022-11-07T00:34:08.095Z,3.60
2022-11-07T00:39:32.069Z,2.97
2022-11-07T00:45:00.222Z,3.22
2022-11-07T00:50:25.104Z,3.10
2022-11-07T00:55:51.075Z,3.00
2022-11-07T01:01:24.545Z,3.05
2022-11-07T01:06:50.073Z,3.00
2022-11-07T01:12:15.051Z,4.80
2022-11-07T01:17:43.670Z,2.95
2022-11-07T01:23:07.095Z,3.35
2022-11-07T01:28:32.121Z,2.60
2022-11-07T01:34:01.444Z,3.85
2022-11-07T01:39:19.064Z,2.80
2022-11-07T01:45:03.099Z,2.75
2022-11-07T01:50:30.115Z,3.00
2022-11-07T01:55:55.139Z,2.80
2022-11-07T02:01:20.141Z,3.00
2022-11-07T02:06:56.331Z,2.65
2022-11-07T02:12:21.113Z,2.50
2022-11-07T02:17:46.591Z,2.65
2022-11-07T02:23:16.551Z,2.38
2022-11-07T02:28:46.097Z,3.30
2022-11-07T02:34:10.120Z,3.33
2022-11-07T02:39:35.092Z,2.25
2022-11-07T02:45:03.108Z,2.30
2022-11-07T02:50:28.136Z,2.70
2022-11-07T02:55:52.127Z,2.20
2022-11-07T03:01:20.219Z,3.05
2022-11-07T03:06:51.140Z,2.45
2022-11-07T03:12:16.159Z,1.90
2022-11-07T03:17:45.121Z,2.28
2022-11-07T03:23:10.132Z,1.95
2022-11-07T03:28:35.158Z,1.92
2022-11-07T03:34:02.137Z,3.10
2022-11-07T03:39:28.213Z,2.20
2022-11-07T03:44:53.146Z,1.83
2022-11-07T03:50:22.155Z,2.00
2022-11-07T03:55:47.153Z,2.35
2022-11-07T04:01:13.147Z,1.85
2022-11-07T04:06:41.153Z,2.00
2022-11-07T04:12:19.207Z,1.85
2022-11-07T04:17:44.147Z,1.88
2022-11-07T04:23:11.167Z,1.70
2022-11-07T04:28:36.164Z,2.50
2022-11-07T04:34:00.708Z,2.10
2022-11-07T04:39:27.200Z,2.22
2022-11-07T04:44:51.179Z,2.35
2022-11-07T04:50:18.214Z,1.67
2022-11-07T04:55:45.176Z,2.47
2022-11-07T05:01:10.359Z,2.20
2022-11-07T05:06:34.169Z,1.77
2022-11-07T05:12:02.218Z,1.67
2022-11-07T05:17:30.205Z,1.90
2022-11-07T05:23:07.494Z,1.50
2022-11-07T05:28:39.530Z,1.63
2022-11-07T05:34:04.236Z,1.40
2022-11-07T05:39:28.188Z,1.75
2022-11-07T05:44:56.217Z,2.15
2022-11-07T05:50:21.672Z,1.85
2022-11-07T05:55:46.209Z,2.50
2022-11-07T06:01:16.191Z,2.53
2022-11-07T06:06:41.208Z,1.73
2022-11-07T06:12:05.223Z,2.05
2022-11-07T06:17:33.296Z,1.70
2022-11-07T06:22:57.224Z,1.50
2022-11-07T06:28:24.244Z,1.50
2022-11-07T06:33:51.201Z,1.42
2022-11-07T06:39:16.206Z,1.42
2022-11-07T06:44:40.219Z,1.30
2022-11-07T06:50:08.247Z,1.45
2022-11-07T06:55:32.229Z,3.30
2022-11-07T07:00:57.354Z,1.00
2022-11-07T07:06:32.277Z,1.42
2022-11-07T07:11:57.233Z,1.38
2022-11-07T07:17:21.254Z,1.70
2022-11-07T07:22:55.444Z,1.77
2022-11-07T07:28:21.238Z,1.38
2022-11-07T07:33:46.280Z,2.17
2022-11-07T07:39:13.257Z,2.03
2022-11-07T07:44:38.256Z,1.23
2022-11-07T07:50:02.265Z,1.23
2022-11-07T07:55:30.237Z,1.88
2022-11-07T08:00:55.335Z,1.63
2022-11-07T08:06:26.267Z,1.05
2022-11-07T08:11:53.505Z,1.97
2022-11-07T08:17:17.248Z,1.77
2022-11-07T08:22:42.272Z,2.42
2022-11-07T08:28:09.262Z,1.45
2022-11-07T08:33:41.384Z,2.15
2022-11-07T08:39:06.276Z,1.63
2022-11-07T08:44:33.387Z,0.90
2022-11-07T08:49:58.291Z,1.02
2022-11-07T08:55:23.291Z,1.67
2022-11-07T09:00:51.355Z,1.35
2022-11-07T09:06:15.365Z,1.45
2022-11-07T09:11:40.302Z,2.20
2022-11-07T09:17:07.303Z,1.85
2022-11-07T09:22:32.296Z,2.15
2022-11-07T09:27:58.317Z,1.83
2022-11-07T09:33:26.289Z,2.55
2022-11-07T09:38:50.334Z,2.50
2022-11-07T09:44:36.542Z,2.67
2022-11-07T09:50:06.429Z,3.38
2022-11-07T09:55:36.317Z,3.05
2022-11-07T10:01:00.375Z,3.90
2022-11-07T10:06:32.445Z,2.42
2022-11-07T10:12:01.776Z,2.42
2022-11-07T10:17:33.328Z,2.03
2022-11-07T10:23:17.798Z,2.78
2022-11-07T10:28:47.414Z,3.70
2022-11-07T10:34:18.322Z,3.10
2022-11-07T10:39:45.351Z,3.93
2022-11-07T10:45:11.492Z,4.63
2022-11-07T10:50:36.360Z,1.85
2022-11-07T10:56:05.383Z,2.03
2022-11-07T11:01:34.490Z,2.55
2022-11-07T11:07:13.426Z,2.70
2022-11-07T11:12:43.393Z,2.50
2022-11-07T11:18:15.707Z,1.92
2022-11-07T11:23:44.386Z,1.95
2022-11-07T11:29:15.393Z,2.00
2022-11-07T11:34:51.400Z,3.90
2022-11-07T11:40:28.534Z,2.95
2022-11-07T11:46:09.382Z,3.92
2022-11-07T11:51:43.696Z,1.37
2022-11-07T11:57:13.488Z,1.58
2022-11-07T12:03:10.496Z,5.85
2022-11-07T12:08:54.397Z,1.92
2022-11-07T12:14:52.914Z,4.20
2022-11-07T12:20:31.445Z,2.50
2022-11-07T12:26:03.582Z,3.00
2022-11-07T12:31:39.386Z,3.00
2022-11-07T12:37:31.512Z,2.20
2022-11-07T12:43:11.537Z,3.10
2022-11-07T12:49:05.418Z,2.33
2022-11-07T12:54:55.606Z,3.97
2022-11-07T13:00:30.498Z,5.88
2022-11-07T13:06:05.448Z,2.63
2022-11-07T13:11:41.498Z,2.35
2022-11-07T13:17:08.437Z,2.80
2022-11-07T13:22:42.498Z,3.88
2022-11-07T13:28:22.470Z,2.63
2022-11-07T13:33:47.474Z,3.22
2022-11-07T13:39:15.536Z,2.10
2022-11-07T13:44:47.465Z,2.75
2022-11-07T13:50:16.483Z,2.70
2022-11-07T13:55:51.528Z,3.83
2022-11-07T14:01:25.553Z,3.17
2022-11-07T14:06:51.448Z,2.90
2022-11-07T14:12:15.474Z,3.17
2022-11-07T14:17:45.489Z,3.17
2022-11-07T14:23:12.493Z,2.60
2022-11-07T14:28:44.804Z,2.58
2022-11-07T14:34:14.448Z,3.50
2022-11-07T14:39:42.491Z,4.25
2022-11-07T14:45:11.501Z,2.90
2022-11-07T14:50:39.526Z,2.90
2022-11-07T14:56:07.538Z,2.83
2022-11-07T15:01:38.551Z,3.15
2022-11-07T15:07:08.784Z,4.33
2022-11-07T15:12:42.528Z,4.18
2022-11-07T15:18:10.549Z,4.80
2022-11-07T15:23:48.509Z,2.72
2022-11-07T15:29:24.525Z,4.47
2022-11-07T15:35:29.758Z,2.92
2022-11-07T15:40:38.525Z,2.58
2022-11-07T15:46:04.496Z,4.82
2022-11-07T15:51:31.510Z,3.70
2022-11-07T15:57:05.568Z,4.72
2022-11-07T16:02:30.632Z,5.35
2022-11-07T16:08:03.606Z,3.50
2022-11-07T16:13:31.558Z,3.80
2022-11-07T16:18:59.538Z,3.78
2022-11-07T16:24:25.512Z,4.93
2022-11-07T16:29:53.565Z,3.53
2022-11-07T16:35:19.547Z,2.70
2022-11-07T16:40:43.549Z,4.50
2022-11-07T16:46:11.767Z,3.80
2022-11-07T16:51:39.567Z,5.72
2022-11-07T16:57:04.527Z,3.20
2022-11-07T17:02:36.646Z,3.60
2022-11-07T17:13:32.567Z,3.42
2022-11-07T17:18:59.871Z,3.90
2022-11-07T17:24:24.563Z,4.10
2022-11-07T17:29:48.570Z,4.63
2022-11-07T17:35:31.629Z,3.92
2022-11-07T17:40:56.577Z,2.95
2022-11-07T17:46:23.573Z,3.08
2022-11-07T17:51:51.597Z,4.32
2022-11-07T17:57:18.587Z,3.50
2022-11-07T18:02:42.673Z,2.92
2022-11-07T18:08:31.195Z,4.05
2022-11-07T18:14:03.732Z,4.03
2022-11-07T18:19:27.579Z,4.03
2022-11-07T18:24:55.595Z,2.83
2022-11-07T18:30:20.681Z,2.75
2022-11-07T18:35:45.596Z,2.22
2022-11-07T18:41:17.599Z,3.88
2022-11-07T18:46:42.608Z,2.78
2022-11-07T18:52:06.609Z,3.53
2022-11-07T18:57:34.634Z,3.33
2022-11-07T19:02:58.637Z,3.42
2022-11-07T19:08:29.616Z,3.83
2022-11-07T19:13:57.618Z,3.70
2022-11-07T19:19:21.642Z,4.50
2022-11-07T19:24:46.761Z,2.67
2022-11-07T19:30:14.709Z,3.33
2022-11-07T19:35:39.652Z,4.68
2022-11-07T19:41:04.620Z,4.38
2022-11-07T19:46:32.690Z,2.63
2022-11-07T19:51:58.649Z,4.10
2022-11-07T19:57:23.643Z,4.07
2022-11-07T20:02:50.673Z,4.22
2022-11-07T20:08:22.677Z,4.03
2022-11-07T20:13:47.646Z,4.30
2022-11-07T20:19:17.641Z,4.38
2022-11-07T20:24:42.652Z,3.15
2022-11-07T20:30:06.678Z,4.82
2022-11-07T20:35:34.661Z,3.13
2022-11-07T20:40:58.661Z,3.97
2022-11-07T20:46:24.676Z,3.83
2022-11-07T20:51:51.681Z,4.80
2022-11-07T20:57:16.658Z,5.18
2022-11-07T21:02:40.670Z,6.38
2022-11-07T21:08:08.743Z,4.22
2022-11-07T21:13:33.695Z,4.07
2022-11-07T21:18:58.725Z,4.55
2022-11-07T21:24:25.756Z,3.97
2022-11-07T21:29:50.672Z,2.83
2022-11-07T21:35:15.683Z,3.88
2022-11-07T21:40:43.710Z,5.53
2022-11-07T21:46:07.728Z,3.88
2022-11-07T21:51:34.684Z,3.78
2022-11-07T21:57:02.714Z,3.95
2022-11-07T22:02:27.882Z,4.30
2022-11-07T22:07:52.692Z,3.83
2022-11-07T22:13:20.753Z,4.70
2022-11-07T22:18:45.719Z,4.85
2022-11-07T22:24:10.704Z,5.47
2022-11-07T22:29:37.740Z,5.35
2022-11-07T22:35:08.802Z,5.85
2022-11-07T22:40:32.724Z,4.93
2022-11-07T22:46:00.753Z,3.95
2022-11-07T22:51:26.756Z,5.13
2022-11-07T22:56:51.718Z,4.85
2022-11-07T23:02:18.859Z,3.13
2022-11-07T23:07:43.722Z,2.72
2022-11-07T23:13:11.767Z,3.30
2022-11-07T23:18:40.801Z,3.83
2022-11-07T23:24:08.744Z,6.57
2022-11-07T23:29:33.775Z,4.68
2022-11-07T23:35:01.739Z,4.05
2022-11-07T23:40:26.787Z,4.68
2022-11-07T23:46:03.768Z,4.20
2022-11-07T23:51:31.757Z,4.72
2022-11-07T23:56:56.784Z,3.22
